sensor_id;sensor_type;location;lat;lon;timestamp;P1;durP1;ratioP1;P2;durP2;ratioP2
30472;SDS011;17263;48.160;11.452;2023-09-07T00:00:44;5.83;;;4.80;;
30472;SDS011;17263;48.160;11.452;2023-09-07T00:03:11;6.57;;;5.10;;
30472;SDS011;17263;48.160;11.452;2023-09-07T00:05:38;6.17;;;4.80;;
30472;SDS011;17263;48.160;11.452;2023-09-07T00:08:04;5.53;;;5.03;;
30472;SDS011;17263;48.160;11.452;2023-09-07T00:10:31;5.73;;;4.87;;
30472;SDS011;17263;48.160;11.452;2023-09-07T00:13:01;6.50;;;4.83;;
30472;SDS011;17263;48.160;11.452;2023-09-07T00:15:28;5.57;;;5.00;;
30472;SDS011;17263;48.160;11.452;2023-09-07T00:17:55;5.63;;;5.10;;
30472;SDS011;17263;48.160;11.452;2023-09-07T00:20:22;5.30;;;4.80;;
30472;SDS011;17263;48.160;11.452;2023-09-07T00:22:49;5.60;;;5.10;;
30472;SDS011;17263;48.160;11.452;2023-09-07T00:25:15;4.80;;;4.40;;
30472;SDS011;17263;48.160;11.452;2023-09-07T00:27:41;7.97;;;5.60;;
30472;SDS011;17263;48.160;11.452;2023-09-07T00:30:07;5.63;;;5.13;;
30472;SDS011;17263;48.160;11.452;2023-09-07T00:32:37;5.57;;;5.00;;
30472;SDS011;17263;48.160;11.452;2023-09-07T00:35:04;6.70;;;5.40;;
30472;SDS011;17263;48.160;11.452;2023-09-07T00:37:31;6.90;;;5.57;;
30472;SDS011;17263;48.160;11.452;2023-09-07T00:39:57;5.80;;;5.30;;
30472;SDS011;17263;48.160;11.452;2023-09-07T00:42:23;6.53;;;5.80;;
30472;SDS011;17263;48.160;11.452;2023-09-07T00:44:50;7.33;;;5.43;;
30472;SDS011;17263;48.160;11.452;2023-09-07T00:47:16;6.20;;;4.97;;
30472;SDS011;17263;48.160;11.452;2023-09-07T00:49:42;7.23;;;5.27;;
30472;SDS011;17263;48.160;11.452;2023-09-07T00:52:09;6.77;;;5.10;;
30472;SDS011;17263;48.160;11.452;2023-09-07T00:54:35;5.77;;;5.00;;
30472;SDS011;17263;48.160;11.452;2023-09-07T00:57:04;5.60;;;4.97;;
30472;SDS011;17263;48.160;11.452;2023-09-07T00:59:32;5.73;;;5.00;;
30472;SDS011;17263;48.160;11.452;2023-09-07T01:01:58;5.37;;;4.87;;
30472;SDS011;17263;48.160;11.452;2023-09-07T01:04:24;5.80;;;5.20;;
30472;SDS011;17263;48.160;11.452;2023-09-07T01:06:51;6.17;;;5.30;;
30472;SDS011;17263;48.160;11.452;2023-09-07T01:09:23;6.63;;;5.43;;
30472;SDS011;17263;48.160;11.452;2023-09-07T01:11:52;6.17;;;5.57;;
30472;SDS011;17263;48.160;11.452;2023-09-07T01:14:18;6.47;;;5.80;;
30472;SDS011;17263;48.160;11.452;2023-09-07T01:16:44;6.13;;;5.30;;
30472;SDS011;17263;48.160;11.452;2023-09-07T01:19:10;6.20;;;5.70;;
30472;SDS011;17263;48.160;11.452;2023-09-07T01:21:37;6.17;;;5.67;;
30472;SDS011;17263;48.160;11.452;2023-09-07T01:24:04;6.73;;;5.50;;
30472;SDS011;17263;48.160;11.452;2023-09-07T01:26:33;7.57;;;6.57;;
30472;SDS011;17263;48.160;11.452;2023-09-07T01:29:00;7.03;;;6.07;;
30472;SDS011;17263;48.160;11.452;2023-09-07T01:31:27;7.70;;;6.23;;
30472;SDS011;17263;48.160;11.452;2023-09-07T01:33:53;6.83;;;5.80;;
30472;SDS011;17263;48.160;11.452;2023-09-07T01:36:19;6.07;;;5.47;;
30472;SDS011;17263;48.160;11.452;2023-09-07T01:38:45;6.20;;;5.70;;
30472;SDS011;17263;48.160;11.452;2023-09-07T01:41:11;6.33;;;5.73;;
30472;SDS011;17263;48.160;11.452;2023-09-07T01:43:37;5.77;;;5.27;;
30472;SDS011;17263;48.160;11.452;2023-09-07T01:46:04;5.77;;;5.27;;
30472;SDS011;17263;48.160;11.452;2023-09-07T01:48:30;6.40;;;5.37;;
30472;SDS011;17263;48.160;11.452;2023-09-07T01:50:56;5.83;;;5.23;;
30472;SDS011;17263;48.160;11.452;2023-09-07T01:53:22;5.73;;;5.13;;
30472;SDS011;17263;48.160;11.452;2023-09-07T01:55:48;6.00;;;4.77;;
30472;SDS011;17263;48.160;11.452;2023-09-07T01:58:14;6.93;;;5.60;;
30472;SDS011;17263;48.160;11.452;2023-09-07T02:00:40;6.50;;;5.20;;
30472;SDS011;17263;48.160;11.452;2023-09-07T02:03:06;5.60;;;5.10;;
30472;SDS011;17263;48.160;11.452;2023-09-07T02:05:32;9.00;;;5.80;;
30472;SDS011;17263;48.160;11.452;2023-09-07T02:07:59;6.10;;;5.50;;
30472;SDS011;17263;48.160;11.452;2023-09-07T02:10:25;5.80;;;5.20;;
30472;SDS011;17263;48.160;11.452;2023-09-07T02:12:51;6.47;;;5.50;;
30472;SDS011;17263;48.160;11.452;2023-09-07T02:15:17;6.40;;;5.80;;
30472;SDS011;17263;48.160;11.452;2023-09-07T02:17:43;7.30;;;6.07;;
30472;SDS011;17263;48.160;11.452;2023-09-07T02:20:10;6.57;;;5.87;;
30472;SDS011;17263;48.160;11.452;2023-09-07T02:22:37;6.50;;;5.50;;
30472;SDS011;17263;48.160;11.452;2023-09-07T02:25:04;5.70;;;5.20;;
30472;SDS011;17263;48.160;11.452;2023-09-07T02:27:32;6.43;;;5.60;;
30472;SDS011;17263;48.160;11.452;2023-09-07T02:29:58;6.23;;;5.60;;
30472;SDS011;17263;48.160;11.452;2023-09-07T02:32:24;5.80;;;5.30;;
30472;SDS011;17263;48.160;11.452;2023-09-07T02:34:50;6.13;;;5.53;;
30472;SDS011;17263;48.160;11.452;2023-09-07T02:37:16;5.80;;;5.30;;
30472;SDS011;17263;48.160;11.452;2023-09-07T02:39:42;6.13;;;5.53;;
30472;SDS011;17263;48.160;11.452;2023-09-07T02:42:09;6.43;;;5.83;;
30472;SDS011;17263;48.160;11.452;2023-09-07T02:44:35;7.17;;;5.70;;
30472;SDS011;17263;48.160;11.452;2023-09-07T02:47:01;6.50;;;5.60;;
30472;SDS011;17263;48.160;11.452;2023-09-07T02:49:27;7.07;;;6.00;;
30472;SDS011;17263;48.160;11.452;2023-09-07T02:51:53;6.80;;;5.90;;
30472;SDS011;17263;48.160;11.452;2023-09-07T02:54:19;6.40;;;5.80;;
30472;SDS011;17263;48.160;11.452;2023-09-07T02:56:45;6.80;;;5.10;;
30472;SDS011;17263;48.160;11.452;2023-09-07T02:59:11;7.00;;;6.30;;
30472;SDS011;17263;48.160;11.452;2023-09-07T03:01:40;7.53;;;6.30;;
30472;SDS011;17263;48.160;11.452;2023-09-07T03:04:06;7.00;;;6.30;;
30472;SDS011;17263;48.160;11.452;2023-09-07T03:06:32;7.80;;;6.03;;
30472;SDS011;17263;48.160;11.452;2023-09-07T03:08:59;7.43;;;5.63;;
30472;SDS011;17263;48.160;11.452;2023-09-07T03:11:25;6.40;;;5.80;;
30472;SDS011;17263;48.160;11.452;2023-09-07T03:13:51;5.47;;;4.97;;
30472;SDS011;17263;48.160;11.452;2023-09-07T03:16:18;6.30;;;5.70;;
30472;SDS011;17263;48.160;11.452;2023-09-07T03:18:44;8.40;;;5.63;;
30472;SDS011;17263;48.160;11.452;2023-09-07T03:21:10;5.87;;;5.37;;
30472;SDS011;17263;48.160;11.452;2023-09-07T03:23:36;9.17;;;5.83;;
30472;SDS011;17263;48.160;11.452;2023-09-07T03:26:02;7.63;;;6.23;;
30472;SDS011;17263;48.160;11.452;2023-09-07T03:28:28;6.43;;;5.83;;
30472;SDS011;17263;48.160;11.452;2023-09-07T03:30:54;7.17;;;6.30;;
30472;SDS011;17263;48.160;11.452;2023-09-07T03:33:20;7.50;;;6.80;;
30472;SDS011;17263;48.160;11.452;2023-09-07T03:35:47;7.80;;;6.40;;
30472;SDS011;17263;48.160;11.452;2023-09-07T03:38:13;7.87;;;7.03;;
30472;SDS011;17263;48.160;11.452;2023-09-07T03:40:39;7.53;;;6.27;;
30472;SDS011;17263;48.160;11.452;2023-09-07T03:43:05;5.57;;;5.07;;
30472;SDS011;17263;48.160;11.452;2023-09-07T03:45:31;6.30;;;5.70;;
30472;SDS011;17263;48.160;11.452;2023-09-07T03:47:57;6.20;;;5.60;;
30472;SDS011;17263;48.160;11.452;2023-09-07T03:50:23;7.30;;;6.60;;
30472;SDS011;17263;48.160;11.452;2023-09-07T03:52:49;7.30;;;6.60;;
30472;SDS011;17263;48.160;11.452;2023-09-07T03:55:15;6.83;;;6.20;;
30472;SDS011;17263;48.160;11.452;2023-09-07T03:57:41;6.77;;;6.17;;
30472;SDS011;17263;48.160;11.452;2023-09-07T04:00:10;7.10;;;6.40;;
30472;SDS011;17263;48.160;11.452;2023-09-07T04:02:37;7.50;;;6.40;;
30472;SDS011;17263;48.160;11.452;2023-09-07T04:05:03;7.97;;;6.30;;
30472;SDS011;17263;48.160;11.452;2023-09-07T04:07:32;7.53;;;6.07;;
30472;SDS011;17263;48.160;11.452;2023-09-07T04:09:58;6.90;;;6.20;;
30472;SDS011;17263;48.160;11.452;2023-09-07T04:12:24;6.97;;;6.30;;
30472;SDS011;17263;48.160;11.452;2023-09-07T04:14:51;8.07;;;6.53;;
30472;SDS011;17263;48.160;11.452;2023-09-07T04:17:17;6.37;;;5.73;;
30472;SDS011;17263;48.160;11.452;2023-09-07T04:19:43;7.00;;;6.20;;
30472;SDS011;17263;48.160;11.452;2023-09-07T04:22:13;6.40;;;5.80;;
30472;SDS011;17263;48.160;11.452;2023-09-07T04:24:39;5.73;;;5.23;;
30472;SDS011;17263;48.160;11.452;2023-09-07T04:27:05;6.97;;;5.50;;
30472;SDS011;17263;48.160;11.452;2023-09-07T04:29:31;6.20;;;5.57;;
30472;SDS011;17263;48.160;11.452;2023-09-07T04:31:57;5.80;;;5.30;;
30472;SDS011;17263;48.160;11.452;2023-09-07T04:34:23;6.03;;;5.50;;
30472;SDS011;17263;48.160;11.452;2023-09-07T04:36:50;7.00;;;5.47;;
30472;SDS011;17263;48.160;11.452;2023-09-07T04:39:16;5.93;;;5.27;;
30472;SDS011;17263;48.160;11.452;2023-09-07T04:41:42;6.73;;;6.13;;
30472;SDS011;17263;48.160;11.452;2023-09-07T04:44:08;7.27;;;6.40;;
30472;SDS011;17263;48.160;11.452;2023-09-07T04:46:34;6.87;;;6.00;;
30472;SDS011;17263;48.160;11.452;2023-09-07T04:49:00;7.07;;;6.37;;
30472;SDS011;17263;48.160;11.452;2023-09-07T04:51:26;6.63;;;5.97;;
30472;SDS011;17263;48.160;11.452;2023-09-07T04:53:52;7.50;;;6.47;;
30472;SDS011;17263;48.160;11.452;2023-09-07T04:56:18;7.43;;;6.57;;
30472;SDS011;17263;48.160;11.452;2023-09-07T04:58:44;9.13;;;6.07;;
30472;SDS011;17263;48.160;11.452;2023-09-07T05:01:11;6.80;;;6.20;;
30472;SDS011;17263;48.160;11.452;2023-09-07T05:03:37;7.17;;;5.90;;
30472;SDS011;17263;48.160;11.452;2023-09-07T05:06:05;8.27;;;6.50;;
30472;SDS011;17263;48.160;11.452;2023-09-07T05:08:32;7.77;;;6.43;;
30472;SDS011;17263;48.160;11.452;2023-09-07T05:10:59;6.37;;;5.77;;
30472;SDS011;17263;48.160;11.452;2023-09-07T05:13:26;7.50;;;6.50;;
30472;SDS011;17263;48.160;11.452;2023-09-07T05:15:53;7.93;;;6.13;;
30472;SDS011;17263;48.160;11.452;2023-09-07T05:18:20;6.37;;;5.83;;
30472;SDS011;17263;48.160;11.452;2023-09-07T05:20:46;7.03;;;6.33;;
30472;SDS011;17263;48.160;11.452;2023-09-07T05:23:19;7.63;;;6.93;;
30472;SDS011;17263;48.160;11.452;2023-09-07T05:25:46;8.07;;;7.27;;
30472;SDS011;17263;48.160;11.452;2023-09-07T05:28:13;8.43;;;7.13;;
30472;SDS011;17263;48.160;11.452;2023-09-07T05:30:40;8.00;;;7.20;;
30472;SDS011;17263;48.160;11.452;2023-09-07T05:33:08;8.67;;;6.90;;
30472;SDS011;17263;48.160;11.452;2023-09-07T05:35:35;7.00;;;6.30;;
30472;SDS011;17263;48.160;11.452;2023-09-07T05:38:02;7.60;;;6.80;;
30472;SDS011;17263;48.160;11.452;2023-09-07T05:40:30;8.73;;;6.40;;
30472;SDS011;17263;48.160;11.452;2023-09-07T05:43:00;6.70;;;6.10;;
30472;SDS011;17263;48.160;11.452;2023-09-07T05:45:26;6.93;;;6.23;;
30472;SDS011;17263;48.160;11.452;2023-09-07T05:47:52;6.90;;;5.60;;
30472;SDS011;17263;48.160;11.452;2023-09-07T05:50:18;6.33;;;5.57;;
30472;SDS011;17263;48.160;11.452;2023-09-07T05:52:44;6.37;;;5.67;;
30472;SDS011;17263;48.160;11.452;2023-09-07T05:55:10;7.87;;;5.77;;
30472;SDS011;17263;48.160;11.452;2023-09-07T05:57:36;10.13;;;6.43;;
30472;SDS011;17263;48.160;11.452;2023-09-07T06:00:02;9.37;;;6.20;;
30472;SDS011;17263;48.160;11.452;2023-09-07T06:02:29;6.10;;;5.50;;
30472;SDS011;17263;48.160;11.452;2023-09-07T06:04:56;7.37;;;5.70;;
30472;SDS011;17263;48.160;11.452;2023-09-07T06:07:22;6.80;;;6.10;;
30472;SDS011;17263;48.160;11.452;2023-09-07T06:09:48;5.87;;;5.10;;
30472;SDS011;17263;48.160;11.452;2023-09-07T06:12:14;6.80;;;6.10;;
30472;SDS011;17263;48.160;11.452;2023-09-07T06:14:40;7.07;;;6.37;;
30472;SDS011;17263;48.160;11.452;2023-09-07T06:17:06;8.20;;;7.27;;
30472;SDS011;17263;48.160;11.452;2023-09-07T06:19:32;8.77;;;7.97;;
30472;SDS011;17263;48.160;11.452;2023-09-07T06:21:58;9.10;;;8.20;;
30472;SDS011;17263;48.160;11.452;2023-09-07T06:24:24;10.87;;;8.83;;
30472;SDS011;17263;48.160;11.452;2023-09-07T06:26:53;8.10;;;7.30;;
30472;SDS011;17263;48.160;11.452;2023-09-07T06:29:19;8.63;;;7.73;;
30472;SDS011;17263;48.160;11.452;2023-09-07T06:31:45;8.47;;;6.53;;
30472;SDS011;17263;48.160;11.452;2023-09-07T06:34:11;8.97;;;8.07;;
30472;SDS011;17263;48.160;11.452;2023-09-07T06:36:37;7.97;;;7.23;;
30472;SDS011;17263;48.160;11.452;2023-09-07T06:39:03;8.20;;;7.07;;
30472;SDS011;17263;48.160;11.452;2023-09-07T06:41:30;8.37;;;6.87;;
30472;SDS011;17263;48.160;11.452;2023-09-07T06:43:56;13.40;;;7.50;;
30472;SDS011;17263;48.160;11.452;2023-09-07T06:46:22;9.47;;;7.90;;
30472;SDS011;17263;48.160;11.452;2023-09-07T06:48:48;9.37;;;7.73;;
30472;SDS011;17263;48.160;11.452;2023-09-07T06:51:14;8.87;;;7.40;;
30472;SDS011;17263;48.160;11.452;2023-09-07T06:53:41;11.00;;;7.33;;
30472;SDS011;17263;48.160;11.452;2023-09-07T06:56:07;7.40;;;6.70;;
30472;SDS011;17263;48.160;11.452;2023-09-07T06:58:33;8.50;;;7.40;;
30472;SDS011;17263;48.160;11.452;2023-09-07T07:01:00;9.63;;;6.43;;
30472;SDS011;17263;48.160;11.452;2023-09-07T07:03:30;8.10;;;6.88;;
30472;SDS011;17263;48.160;11.452;2023-09-07T07:05:56;8.70;;;6.90;;
30472;SDS011;17263;48.160;11.452;2023-09-07T07:08:22;9.05;;;6.72;;
30472;SDS011;17263;48.160;11.452;2023-09-07T07:10:49;11.02;;;7.38;;
30472;SDS011;17263;48.160;11.452;2023-09-07T07:13:15;7.57;;;6.57;;
30472;SDS011;17263;48.160;11.452;2023-09-07T07:15:41;9.15;;;6.70;;
30472;SDS011;17263;48.160;11.452;2023-09-07T07:18:08;7.15;;;6.25;;
30472;SDS011;17263;48.160;11.452;2023-09-07T07:20:35;7.97;;;6.88;;
30472;SDS011;17263;48.160;11.452;2023-09-07T07:23:02;8.07;;;6.80;;
30472;SDS011;17263;48.160;11.452;2023-09-07T07:25:28;11.32;;;6.72;;
30472;SDS011;17263;48.160;11.452;2023-09-07T07:27:56;7.82;;;7.00;;
30472;SDS011;17263;48.160;11.452;2023-09-07T07:30:22;7.78;;;6.07;;
30472;SDS011;17263;48.160;11.452;2023-09-07T07:32:48;9.13;;;7.35;;
30472;SDS011;17263;48.160;11.452;2023-09-07T07:35:16;6.70;;;5.95;;
30472;SDS011;17263;48.160;11.452;2023-09-07T07:37:42;9.50;;;6.95;;
30472;SDS011;17263;48.160;11.452;2023-09-07T07:40:08;7.03;;;6.32;;
30472;SDS011;17263;48.160;11.452;2023-09-07T07:42:35;9.07;;;6.65;;
30472;SDS011;17263;48.160;11.452;2023-09-07T07:45:01;10.95;;;7.32;;
30472;SDS011;17263;48.160;11.452;2023-09-07T07:47:27;10.35;;;6.57;;
30472;SDS011;17263;48.160;11.452;2023-09-07T07:49:53;7.20;;;6.55;;
30472;SDS011;17263;48.160;11.452;2023-09-07T07:52:19;6.88;;;6.28;;
30472;SDS011;17263;48.160;11.452;2023-09-07T07:54:45;7.18;;;6.57;;
30472;SDS011;17263;48.160;11.452;2023-09-07T07:57:11;5.85;;;5.35;;
30472;SDS011;17263;48.160;11.452;2023-09-07T07:59:37;8.45;;;5.82;;
30472;SDS011;17263;48.160;11.452;2023-09-07T08:02:03;8.18;;;5.40;;
30472;SDS011;17263;48.160;11.452;2023-09-07T08:04:31;6.95;;;6.15;;
30472;SDS011;17263;48.160;11.452;2023-09-07T08:06:58;8.75;;;6.30;;
30472;SDS011;17263;48.160;11.452;2023-09-07T08:09:29;11.13;;;6.40;;
30472;SDS011;17263;48.160;11.452;2023-09-07T08:11:56;6.95;;;6.25;;
30472;SDS011;17263;48.160;11.452;2023-09-07T08:14:23;6.47;;;5.70;;
30472;SDS011;17263;48.160;11.452;2023-09-07T08:16:50;8.32;;;6.25;;
30472;SDS011;17263;48.160;11.452;2023-09-07T08:19:18;11.40;;;6.78;;
30472;SDS011;17263;48.160;11.452;2023-09-07T08:21:45;7.05;;;6.07;;
30472;SDS011;17263;48.160;11.452;2023-09-07T08:24:11;7.13;;;5.80;;
30472;SDS011;17263;48.160;11.452;2023-09-07T08:26:38;6.45;;;5.47;;
30472;SDS011;17263;48.160;11.452;2023-09-07T08:29:04;6.32;;;5.72;;
30472;SDS011;17263;48.160;11.452;2023-09-07T08:31:34;7.22;;;5.82;;
30472;SDS011;17263;48.160;11.452;2023-09-07T08:34:01;6.05;;;5.55;;
30472;SDS011;17263;48.160;11.452;2023-09-07T08:36:29;7.88;;;5.40;;
30472;SDS011;17263;48.160;11.452;2023-09-07T08:38:58;8.18;;;5.55;;
30472;SDS011;17263;48.160;11.452;2023-09-07T08:41:31;8.75;;;5.60;;
30472;SDS011;17263;48.160;11.452;2023-09-07T08:44:02;7.03;;;5.53;;
30472;SDS011;17263;48.160;11.452;2023-09-07T08:46:31;7.38;;;6.68;;
30472;SDS011;17263;48.160;11.452;2023-09-07T08:48:59;5.82;;;5.20;;
30472;SDS011;17263;48.160;11.452;2023-09-07T08:51:29;5.53;;;4.97;;
30472;SDS011;17263;48.160;11.452;2023-09-07T08:54:00;6.00;;;5.40;;
30472;SDS011;17263;48.160;11.452;2023-09-07T08:56:26;8.10;;;5.78;;
30472;SDS011;17263;48.160;11.452;2023-09-07T08:58:53;6.45;;;5.43;;
30472;SDS011;17263;48.160;11.452;2023-09-07T09:01:19;6.00;;;5.15;;
30472;SDS011;17263;48.160;11.452;2023-09-07T09:03:50;6.15;;;5.55;;
30472;SDS011;17263;48.160;11.452;2023-09-07T09:06:17;6.60;;;6.00;;
30472;SDS011;17263;48.160;11.452;2023-09-07T09:08:45;6.15;;;5.57;;
30472;SDS011;17263;48.160;11.452;2023-09-07T09:11:14;7.93;;;5.43;;
30472;SDS011;17263;48.160;11.452;2023-09-07T09:13:41;7.43;;;5.57;;
30472;SDS011;17263;48.160;11.452;2023-09-07T09:16:08;6.43;;;5.75;;
30472;SDS011;17263;48.160;11.452;2023-09-07T09:18:35;8.10;;;5.43;;
30472;SDS011;17263;48.160;11.452;2023-09-07T09:21:01;6.80;;;5.13;;
30472;SDS011;17263;48.160;11.452;2023-09-07T09:23:46;7.15;;;5.40;;
30472;SDS011;17263;48.160;11.452;2023-09-07T09:26:15;6.63;;;5.88;;
30472;SDS011;17263;48.160;11.452;2023-09-07T09:28:41;7.60;;;5.38;;
30472;SDS011;17263;48.160;11.452;2023-09-07T09:31:10;6.53;;;5.25;;
30472;SDS011;17263;48.160;11.452;2023-09-07T09:33:40;9.48;;;5.70;;
30472;SDS011;17263;48.160;11.452;2023-09-07T09:36:07;7.18;;;5.18;;
30472;SDS011;17263;48.160;11.452;2023-09-07T09:38:34;6.25;;;5.57;;
30472;SDS011;17263;48.160;11.452;2023-09-07T09:41:01;6.28;;;5.55;;
30472;SDS011;17263;48.160;11.452;2023-09-07T09:43:31;6.53;;;5.72;;
30472;SDS011;17263;48.160;11.452;2023-09-07T09:45:57;6.65;;;5.57;;
30472;SDS011;17263;48.160;11.452;2023-09-07T09:48:28;5.50;;;5.00;;
30472;SDS011;17263;48.160;11.452;2023-09-07T09:50:57;7.80;;;5.55;;
30472;SDS011;17263;48.160;11.452;2023-09-07T09:53:24;8.30;;;6.07;;
30472;SDS011;17263;48.160;11.452;2023-09-07T09:55:52;6.88;;;5.05;;
30472;SDS011;17263;48.160;11.452;2023-09-07T09:58:19;6.60;;;5.70;;
30472;SDS011;17263;48.160;11.452;2023-09-07T10:00:46;6.53;;;5.72;;
30472;SDS011;17263;48.160;11.452;2023-09-07T10:03:16;6.60;;;5.60;;
30472;SDS011;17263;48.160;11.452;2023-09-07T10:05:54;7.85;;;6.15;;
30472;SDS011;17263;48.160;11.452;2023-09-07T10:08:20;6.93;;;5.20;;
30472;SDS011;17263;48.160;11.452;2023-09-07T10:10:49;7.67;;;6.87;;
30472;SDS011;17263;48.160;11.452;2023-09-07T10:13:28;6.93;;;6.13;;
30472;SDS011;17263;48.160;11.452;2023-09-07T10:16:00;8.83;;;6.00;;
30472;SDS011;17263;48.160;11.452;2023-09-07T10:18:33;8.07;;;6.30;;
30472;SDS011;17263;48.160;11.452;2023-09-07T10:21:01;10.37;;;7.40;;
30472;SDS011;17263;48.160;11.452;2023-09-07T10:23:35;8.03;;;6.30;;
30472;SDS011;17263;48.160;11.452;2023-09-07T10:26:02;7.40;;;6.27;;
30472;SDS011;17263;48.160;11.452;2023-09-07T10:28:32;8.07;;;7.03;;
30472;SDS011;17263;48.160;11.452;2023-09-07T10:31:02;7.63;;;6.60;;
30472;SDS011;17263;48.160;11.452;2023-09-07T10:33:32;6.20;;;5.60;;
30472;SDS011;17263;48.160;11.452;2023-09-07T10:36:00;7.87;;;6.47;;
30472;SDS011;17263;48.160;11.452;2023-09-07T10:38:31;6.93;;;6.17;;
30472;SDS011;17263;48.160;11.452;2023-09-07T10:40:58;9.60;;;6.40;;
30472;SDS011;17263;48.160;11.452;2023-09-07T10:43:30;7.93;;;6.37;;
30472;SDS011;17263;48.160;11.452;2023-09-07T10:45:58;6.50;;;5.90;;
30472;SDS011;17263;48.160;11.452;2023-09-07T10:48:26;7.17;;;6.47;;
30472;SDS011;17263;48.160;11.452;2023-09-07T10:50:55;6.77;;;5.50;;
30472;SDS011;17263;48.160;11.452;2023-09-07T10:53:26;7.63;;;6.00;;
30472;SDS011;17263;48.160;11.452;2023-09-07T10:55:57;6.90;;;6.30;;
30472;SDS011;17263;48.160;11.452;2023-09-07T10:58:31;6.27;;;5.53;;
30472;SDS011;17263;48.160;11.452;2023-09-07T11:00:58;7.07;;;5.73;;
30472;SDS011;17263;48.160;11.452;2023-09-07T11:03:25;5.33;;;4.87;;
30472;SDS011;17263;48.160;11.452;2023-09-07T11:05:56;6.97;;;5.50;;
30472;SDS011;17263;48.160;11.452;2023-09-07T11:08:35;6.07;;;5.53;;
30472;SDS011;17263;48.160;11.452;2023-09-07T11:11:04;5.97;;;5.37;;
30472;SDS011;17263;48.160;11.452;2023-09-07T11:13:30;7.00;;;5.60;;
30472;SDS011;17263;48.160;11.452;2023-09-07T11:15:57;6.93;;;5.30;;
30472;SDS011;17263;48.160;11.452;2023-09-07T11:18:25;5.90;;;5.40;;
30472;SDS011;17263;48.160;11.452;2023-09-07T11:20:52;6.80;;;6.20;;
30472;SDS011;17263;48.160;11.452;2023-09-07T11:23:19;6.03;;;5.40;;
30472;SDS011;17263;48.160;11.452;2023-09-07T11:25:46;6.60;;;5.33;;
30472;SDS011;17263;48.160;11.452;2023-09-07T11:28:15;6.40;;;5.80;;
30472;SDS011;17263;48.160;11.452;2023-09-07T11:30:51;8.10;;;5.87;;
30472;SDS011;17263;48.160;11.452;2023-09-07T11:33:18;6.53;;;5.90;;
30472;SDS011;17263;48.160;11.452;2023-09-07T11:35:46;5.80;;;5.13;;
30472;SDS011;17263;48.160;11.452;2023-09-07T11:38:12;6.43;;;5.50;;
30472;SDS011;17263;48.160;11.452;2023-09-07T11:40:40;7.47;;;5.53;;
30472;SDS011;17263;48.160;11.452;2023-09-07T11:43:13;5.50;;;5.00;;
30472;SDS011;17263;48.160;11.452;2023-09-07T11:45:40;8.23;;;5.67;;
30472;SDS011;17263;48.160;11.452;2023-09-07T11:48:07;6.33;;;5.40;;
30472;SDS011;17263;48.160;11.452;2023-09-07T11:50:34;6.60;;;5.30;;
30472;SDS011;17263;48.160;11.452;2023-09-07T11:53:01;6.03;;;5.00;;
30472;SDS011;17263;48.160;11.452;2023-09-07T11:55:27;5.67;;;5.20;;
30472;SDS011;17263;48.160;11.452;2023-09-07T11:57:54;5.27;;;4.70;;
30472;SDS011;17263;48.160;11.452;2023-09-07T12:00:20;5.97;;;5.47;;
30472;SDS011;17263;48.160;11.452;2023-09-07T12:02:48;9.10;;;5.37;;
30472;SDS011;17263;48.160;11.452;2023-09-07T12:05:14;5.43;;;4.97;;
30472;SDS011;17263;48.160;11.452;2023-09-07T12:07:41;7.83;;;5.33;;
30472;SDS011;17263;48.160;11.452;2023-09-07T12:10:10;6.47;;;5.20;;
30472;SDS011;17263;48.160;11.452;2023-09-07T12:12:39;6.20;;;4.83;;
30472;SDS011;17263;48.160;11.452;2023-09-07T12:15:06;8.80;;;5.43;;
30472;SDS011;17263;48.160;11.452;2023-09-07T12:17:33;5.70;;;5.20;;
30472;SDS011;17263;48.160;11.452;2023-09-07T12:19:59;5.60;;;5.10;;
30472;SDS011;17263;48.160;11.452;2023-09-07T12:22:26;6.28;;;5.00;;
30472;SDS011;17263;48.160;11.452;2023-09-07T12:24:55;5.28;;;4.50;;
30472;SDS011;17263;48.160;11.452;2023-09-07T12:27:22;5.72;;;5.22;;
30472;SDS011;17263;48.160;11.452;2023-09-07T12:29:48;5.60;;;5.10;;
30472;SDS011;17263;48.160;11.452;2023-09-07T12:32:14;5.40;;;4.90;;
30472;SDS011;17263;48.160;11.452;2023-09-07T12:34:40;5.68;;;5.18;;
30472;SDS011;17263;48.160;11.452;2023-09-07T12:37:06;5.38;;;4.70;;
30472;SDS011;17263;48.160;11.452;2023-09-07T12:39:32;5.28;;;4.78;;
30472;SDS011;17263;48.160;11.452;2023-09-07T12:41:58;6.73;;;4.47;;
30472;SDS011;17263;48.160;11.452;2023-09-07T12:44:24;7.07;;;5.20;;
30472;SDS011;17263;48.160;11.452;2023-09-07T12:46:50;5.77;;;5.00;;
30472;SDS011;17263;48.160;11.452;2023-09-07T12:49:16;9.03;;;5.13;;
30472;SDS011;17263;48.160;11.452;2023-09-07T12:51:42;7.33;;;4.37;;
30472;SDS011;17263;48.160;11.452;2023-09-07T12:54:10;6.40;;;4.90;;
30472;SDS011;17263;48.160;11.452;2023-09-07T12:56:36;5.50;;;5.00;;
30472;SDS011;17263;48.160;11.452;2023-09-07T12:59:02;5.63;;;4.70;;
30472;SDS011;17263;48.160;11.452;2023-09-07T13:01:29;5.13;;;4.72;;
30472;SDS011;17263;48.160;11.452;2023-09-07T13:03:56;5.33;;;4.83;;
30472;SDS011;17263;48.160;11.452;2023-09-07T13:06:22;5.38;;;4.97;;
30472;SDS011;17263;48.160;11.452;2023-09-07T13:08:48;6.50;;;4.80;;
30472;SDS011;17263;48.160;11.452;2023-09-07T13:11:14;5.63;;;5.13;;
30472;SDS011;17263;48.160;11.452;2023-09-07T13:13:40;6.90;;;4.97;;
30472;SDS011;17263;48.160;11.452;2023-09-07T13:16:06;7.43;;;4.90;;
30472;SDS011;17263;48.160;11.452;2023-09-07T13:18:32;4.80;;;4.40;;
30472;SDS011;17263;48.160;11.452;2023-09-07T13:20:58;5.57;;;4.77;;
30472;SDS011;17263;48.160;11.452;2023-09-07T13:23:28;5.07;;;4.57;;
30472;SDS011;17263;48.160;11.452;2023-09-07T13:25:55;4.82;;;4.43;;
30472;SDS011;17263;48.160;11.452;2023-09-07T13:28:21;6.97;;;4.43;;
30472;SDS011;17263;48.160;11.452;2023-09-07T13:30:47;4.72;;;4.32;;
30472;SDS011;17263;48.160;11.452;2023-09-07T13:33:14;5.13;;;4.63;;
30472;SDS011;17263;48.160;11.452;2023-09-07T13:35:40;4.83;;;4.40;;
30472;SDS011;17263;48.160;11.452;2023-09-07T13:38:06;4.80;;;4.40;;
30472;SDS011;17263;48.160;11.452;2023-09-07T13:40:32;5.65;;;4.18;;
30472;SDS011;17263;48.160;11.452;2023-09-07T13:42:58;4.95;;;4.28;;
30472;SDS011;17263;48.160;11.452;2023-09-07T13:45:24;4.40;;;4.00;;
30472;SDS011;17263;48.160;11.452;2023-09-07T13:47:50;4.88;;;4.00;;
30472;SDS011;17263;48.160;11.452;2023-09-07T13:50:16;4.72;;;3.72;;
30472;SDS011;17263;48.160;11.452;2023-09-07T13:52:42;4.70;;;4.30;;
30472;SDS011;17263;48.160;11.452;2023-09-07T13:55:08;6.00;;;3.88;;
30472;SDS011;17263;48.160;11.452;2023-09-07T13:57:34;5.50;;;4.38;;
30472;SDS011;17263;48.160;11.452;2023-09-07T14:00:01;4.25;;;3.85;;
30472;SDS011;17263;48.160;11.452;2023-09-07T14:02:27;5.07;;;4.18;;
30472;SDS011;17263;48.160;11.452;2023-09-07T14:04:53;4.82;;;3.42;;
30472;SDS011;17263;48.160;11.452;2023-09-07T14:07:19;3.85;;;3.45;;
30472;SDS011;17263;48.160;11.452;2023-09-07T14:09:46;4.85;;;3.67;;
30472;SDS011;17263;48.160;11.452;2023-09-07T14:12:12;9.13;;;4.17;;
30472;SDS011;17263;48.160;11.452;2023-09-07T14:14:38;3.90;;;3.60;;
30472;SDS011;17263;48.160;11.452;2023-09-07T14:17:04;5.23;;;3.70;;
30472;SDS011;17263;48.160;11.452;2023-09-07T14:19:31;4.13;;;3.72;;
30472;SDS011;17263;48.160;11.452;2023-09-07T14:21:57;4.40;;;3.70;;
30472;SDS011;17263;48.160;11.452;2023-09-07T14:24:24;4.15;;;3.72;;
30472;SDS011;17263;48.160;11.452;2023-09-07T14:26:50;3.87;;;3.57;;
30472;SDS011;17263;48.160;11.452;2023-09-07T14:29:16;5.20;;;3.63;;
30472;SDS011;17263;48.160;11.452;2023-09-07T14:31:42;6.03;;;3.53;;